sensor_id;sensor_type;location;lat;lon;timestamp;P1;durP1;ratioP1;P2;durP2;ratioP2
1765;SDS011;880;52.452;8.656;2023-03-14T00:01:45;9.60;;;8.73;;
1765;SDS011;880;52.452;8.656;2023-03-14T00:04:12;9.07;;;8.32;;
1765;SDS011;880;52.452;8.656;2023-03-14T00:06:39;7.85;;;7.13;;
1765;SDS011;880;52.452;8.656;2023-03-14T00:09:06;8.10;;;7.70;;
1765;SDS011;880;52.452;8.656;2023-03-14T00:11:33;8.13;;;7.70;;
1765;SDS011;880;52.452;8.656;2023-03-14T00:14:01;8.82;;;8.02;;
1765;SDS011;880;52.452;8.656;2023-03-14T00:16:29;8.00;;;7.40;;
1765;SDS011;880;52.452;8.656;2023-03-14T00:18:55;9.10;;;7.97;;
1765;SDS011;880;52.452;8.656;2023-03-14T00:21:25;7.75;;;7.18;;
1765;SDS011;880;52.452;8.656;2023-03-14T00:23:52;7.93;;;7.18;;
1765;SDS011;880;52.452;8.656;2023-03-14T00:26:20;7.65;;;7.13;;
1765;SDS011;880;52.452;8.656;2023-03-14T00:28:50;8.20;;;7.72;;
1765;SDS011;880;52.452;8.656;2023-03-14T00:31:26;8.75;;;8.02;;
1765;SDS011;880;52.452;8.656;2023-03-14T00:33:53;8.13;;;7.65;;
1765;SDS011;880;52.452;8.656;2023-03-14T00:36:20;8.00;;;7.47;;
1765;SDS011;880;52.452;8.656;2023-03-14T00:38:48;8.43;;;7.88;;
1765;SDS011;880;52.452;8.656;2023-03-14T00:41:18;8.63;;;8.00;;
1765;SDS011;880;52.452;8.656;2023-03-14T00:43:49;9.27;;;8.55;;
1765;SDS011;880;52.452;8.656;2023-03-14T00:46:17;7.88;;;7.47;;
1765;SDS011;880;52.452;8.656;2023-03-14T00:48:44;8.90;;;8.23;;
1765;SDS011;880;52.452;8.656;2023-03-14T00:51:13;7.45;;;7.05;;
1765;SDS011;880;52.452;8.656;2023-03-14T00:53:42;7.93;;;7.32;;
1765;SDS011;880;52.452;8.656;2023-03-14T00:56:11;8.65;;;7.97;;
1765;SDS011;880;52.452;8.656;2023-03-14T00:58:39;9.73;;;9.23;;
1765;SDS011;880;52.452;8.656;2023-03-14T01:01:07;8.85;;;8.25;;
1765;SDS011;880;52.452;8.656;2023-03-14T01:03:36;8.85;;;7.95;;
1765;SDS011;880;52.452;8.656;2023-03-14T01:06:07;7.97;;;7.28;;
1765;SDS011;880;52.452;8.656;2023-03-14T01:08:41;8.05;;;7.53;;
1765;SDS011;880;52.452;8.656;2023-03-14T01:11:11;8.30;;;7.68;;
1765;SDS011;880;52.452;8.656;2023-03-14T01:13:45;8.48;;;8.02;;
1765;SDS011;880;52.452;8.656;2023-03-14T01:16:12;8.45;;;7.95;;
1765;SDS011;880;52.452;8.656;2023-03-14T01:18:41;8.02;;;7.43;;
1765;SDS011;880;52.452;8.656;2023-03-14T01:21:11;7.90;;;7.22;;
1765;SDS011;880;52.452;8.656;2023-03-14T01:24:05;8.88;;;8.10;;
1765;SDS011;880;52.452;8.656;2023-03-14T01:26:33;8.52;;;7.93;;
1765;SDS011;880;52.452;8.656;2023-03-14T01:29:03;8.63;;;7.90;;
1765;SDS011;880;52.452;8.656;2023-03-14T01:34:00;8.63;;;8.02;;
1765;SDS011;880;52.452;8.656;2023-03-14T01:36:27;8.10;;;7.55;;
1765;SDS011;880;52.452;8.656;2023-03-14T01:38:58;8.05;;;7.45;;
1765;SDS011;880;52.452;8.656;2023-03-14T01:41:25;9.75;;;9.25;;
1765;SDS011;880;52.452;8.656;2023-03-14T01:43:55;10.30;;;9.55;;
1765;SDS011;880;52.452;8.656;2023-03-14T01:46:32;8.07;;;7.35;;
1765;SDS011;880;52.452;8.656;2023-03-14T01:49:30;7.47;;;7.15;;
1765;SDS011;880;52.452;8.656;2023-03-14T01:52:10;6.88;;;6.57;;
1765;SDS011;880;52.452;8.656;2023-03-14T01:54:50;9.13;;;8.23;;
1765;SDS011;880;52.452;8.656;2023-03-14T01:57:38;7.68;;;7.30;;
1765;SDS011;880;52.452;8.656;2023-03-14T02:00:11;7.95;;;6.80;;
1765;SDS011;880;52.452;8.656;2023-03-14T02:02:45;8.77;;;7.30;;
1765;SDS011;880;52.452;8.656;2023-03-14T02:05:21;7.05;;;6.63;;
1765;SDS011;880;52.452;8.656;2023-03-14T02:07:56;6.93;;;6.55;;
1765;SDS011;880;52.452;8.656;2023-03-14T02:10:42;7.65;;;7.07;;
1765;SDS011;880;52.452;8.656;2023-03-14T02:13:14;6.63;;;6.03;;
1765;SDS011;880;52.452;8.656;2023-03-14T02:15:59;7.72;;;7.15;;
1765;SDS011;880;52.452;8.656;2023-03-14T02:18:38;7.50;;;7.05;;
1765;SDS011;880;52.452;8.656;2023-03-14T02:22:02;8.65;;;6.72;;
1765;SDS011;880;52.452;8.656;2023-03-14T02:27:18;7.57;;;7.07;;
1765;SDS011;880;52.452;8.656;2023-03-14T02:29:54;7.93;;;6.82;;
1765;SDS011;880;52.452;8.656;2023-03-14T02:32:36;7.15;;;6.55;;
1765;SDS011;880;52.452;8.656;2023-03-14T02:35:08;7.93;;;7.15;;
1765;SDS011;880;52.452;8.656;2023-03-14T02:37:49;7.82;;;7.18;;
1765;SDS011;880;52.452;8.656;2023-03-14T02:40:23;7.50;;;6.93;;
1765;SDS011;880;52.452;8.656;2023-03-14T02:42:51;9.38;;;8.73;;
1765;SDS011;880;52.452;8.656;2023-03-14T02:47:53;7.57;;;7.00;;
1765;SDS011;880;52.452;8.656;2023-03-14T02:50:29;7.38;;;6.88;;
1765;SDS011;880;52.452;8.656;2023-03-14T02:53:00;8.13;;;7.38;;
1765;SDS011;880;52.452;8.656;2023-03-14T02:55:27;8.50;;;8.00;;
1765;SDS011;880;52.452;8.656;2023-03-14T02:57:58;9.00;;;7.13;;
1765;SDS011;880;52.452;8.656;2023-03-14T03:00:26;7.05;;;6.63;;
1765;SDS011;880;52.452;8.656;2023-03-14T03:02:54;6.97;;;6.47;;
1765;SDS011;880;52.452;8.656;2023-03-14T03:05:21;7.03;;;6.43;;
1765;SDS011;880;52.452;8.656;2023-03-14T03:07:48;7.55;;;6.45;;
1765;SDS011;880;52.452;8.656;2023-03-14T03:10:15;7.07;;;6.68;;
1765;SDS011;880;52.452;8.656;2023-03-14T03:12:43;7.63;;;6.90;;
1765;SDS011;880;52.452;8.656;2023-03-14T03:15:10;8.07;;;5.97;;
1765;SDS011;880;52.452;8.656;2023-03-14T03:17:37;8.13;;;7.40;;
1765;SDS011;880;52.452;8.656;2023-03-14T03:20:04;6.85;;;6.40;;
1765;SDS011;880;52.452;8.656;2023-03-14T03:22:35;9.85;;;9.05;;
1765;SDS011;880;52.452;8.656;2023-03-14T03:25:04;7.80;;;6.85;;
1765;SDS011;880;52.452;8.656;2023-03-14T03:27:33;6.82;;;6.30;;
1765;SDS011;880;52.452;8.656;2023-03-14T03:30:02;6.57;;;6.18;;
1765;SDS011;880;52.452;8.656;2023-03-14T03:32:32;7.40;;;6.45;;
1765;SDS011;880;52.452;8.656;2023-03-14T03:34:59;7.55;;;7.10;;
1765;SDS011;880;52.452;8.656;2023-03-14T03:37:32;6.90;;;6.38;;
1765;SDS011;880;52.452;8.656;2023-03-14T03:40:02;6.70;;;6.20;;
1765;SDS011;880;52.452;8.656;2023-03-14T03:42:34;7.05;;;6.55;;
1765;SDS011;880;52.452;8.656;2023-03-14T03:45:04;7.90;;;7.22;;
1765;SDS011;880;52.452;8.656;2023-03-14T03:47:35;7.50;;;6.97;;
1765;SDS011;880;52.452;8.656;2023-03-14T03:50:03;7.05;;;6.53;;
1765;SDS011;880;52.452;8.656;2023-03-14T03:52:30;8.27;;;7.82;;
1765;SDS011;880;52.452;8.656;2023-03-14T03:54:57;7.03;;;6.50;;
1765;SDS011;880;52.452;8.656;2023-03-14T03:57:26;8.13;;;7.45;;
1765;SDS011;880;52.452;8.656;2023-03-14T03:59:55;7.43;;;6.95;;
1765;SDS011;880;52.452;8.656;2023-03-14T04:02:21;6.57;;;6.07;;
1765;SDS011;880;52.452;8.656;2023-03-14T04:04:49;6.65;;;6.35;;
1765;SDS011;880;52.452;8.656;2023-03-14T04:07:17;7.43;;;7.03;;
1765;SDS011;880;52.452;8.656;2023-03-14T04:09:44;7.25;;;6.57;;
1765;SDS011;880;52.452;8.656;2023-03-14T04:12:37;8.13;;;7.57;;
1765;SDS011;880;52.452;8.656;2023-03-14T04:15:14;8.05;;;7.22;;
1765;SDS011;880;52.452;8.656;2023-03-14T04:17:47;9.02;;;7.80;;
1765;SDS011;880;52.452;8.656;2023-03-14T04:20:15;9.43;;;8.80;;
1765;SDS011;880;52.452;8.656;2023-03-14T04:22:42;8.50;;;7.50;;
1765;SDS011;880;52.452;8.656;2023-03-14T04:25:10;8.00;;;7.03;;
1765;SDS011;880;52.452;8.656;2023-03-14T04:27:42;7.05;;;6.55;;
1765;SDS011;880;52.452;8.656;2023-03-14T04:30:17;6.18;;;5.70;;
1765;SDS011;880;52.452;8.656;2023-03-14T04:32:51;7.18;;;6.78;;
1765;SDS011;880;52.452;8.656;2023-03-14T04:37:52;6.55;;;6.15;;
1765;SDS011;880;52.452;8.656;2023-03-14T04:40:20;6.53;;;5.97;;
1765;SDS011;880;52.452;8.656;2023-03-14T04:42:50;6.95;;;6.32;;
1765;SDS011;880;52.452;8.656;2023-03-14T04:45:17;6.93;;;6.25;;
1765;SDS011;880;52.452;8.656;2023-03-14T04:47:45;7.30;;;6.70;;
1765;SDS011;880;52.452;8.656;2023-03-14T04:50:16;7.60;;;7.07;;
1765;SDS011;880;52.452;8.656;2023-03-14T04:52:44;8.02;;;7.43;;
1765;SDS011;880;52.452;8.656;2023-03-14T04:55:11;8.85;;;8.25;;
1765;SDS011;880;52.452;8.656;2023-03-14T04:57:38;7.90;;;7.25;;
1765;SDS011;880;52.452;8.656;2023-03-14T05:00:08;7.28;;;6.75;;
1765;SDS011;880;52.452;8.656;2023-03-14T05:02:51;7.70;;;6.90;;
1765;SDS011;880;52.452;8.656;2023-03-14T05:05:25;9.02;;;7.65;;
1765;SDS011;880;52.452;8.656;2023-03-14T05:08:30;8.73;;;8.15;;
1765;SDS011;880;52.452;8.656;2023-03-14T05:11:20;8.80;;;8.10;;
1765;SDS011;880;52.452;8.656;2023-03-14T05:14:02;9.60;;;8.90;;
1765;SDS011;880;52.452;8.656;2023-03-14T05:16:43;8.80;;;7.90;;
1765;SDS011;880;52.452;8.656;2023-03-14T05:19:28;9.45;;;8.75;;
1765;SDS011;880;52.452;8.656;2023-03-14T05:22:30;8.77;;;7.82;;
1765;SDS011;880;52.452;8.656;2023-03-14T05:25:17;9.80;;;9.00;;
1765;SDS011;880;52.452;8.656;2023-03-14T05:28:00;8.57;;;7.80;;
1765;SDS011;880;52.452;8.656;2023-03-14T05:30:38;8.60;;;7.85;;
1765;SDS011;880;52.452;8.656;2023-03-14T05:33:24;7.72;;;7.13;;
1765;SDS011;880;52.452;8.656;2023-03-14T05:36:09;9.65;;;9.15;;
1765;SDS011;880;52.452;8.656;2023-03-14T05:38:37;8.57;;;7.65;;
1765;SDS011;880;52.452;8.656;2023-03-14T05:41:24;10.52;;;8.93;;
1765;SDS011;880;52.452;8.656;2023-03-14T05:44:21;10.02;;;8.77;;
1765;SDS011;880;52.452;8.656;2023-03-14T05:47:07;11.48;;;9.20;;
1765;SDS011;880;52.452;8.656;2023-03-14T05:49:51;9.77;;;8.93;;
1765;SDS011;880;52.452;8.656;2023-03-14T05:52:36;8.05;;;7.28;;
1765;SDS011;880;52.452;8.656;2023-03-14T05:55:22;10.23;;;9.27;;
1765;SDS011;880;52.452;8.656;2023-03-14T05:58:07;11.88;;;10.65;;
1765;SDS011;880;52.452;8.656;2023-03-14T06:00:53;16.52;;;10.63;;
1765;SDS011;880;52.452;8.656;2023-03-14T06:03:35;12.35;;;11.13;;
1765;SDS011;880;52.452;8.656;2023-03-14T06:06:02;11.30;;;10.32;;
1765;SDS011;880;52.452;8.656;2023-03-14T06:08:29;10.73;;;9.77;;
1765;SDS011;880;52.452;8.656;2023-03-14T06:10:57;14.32;;;10.60;;
1765;SDS011;880;52.452;8.656;2023-03-14T06:13:28;11.20;;;10.23;;
1765;SDS011;880;52.452;8.656;2023-03-14T06:15:55;11.38;;;10.27;;
1765;SDS011;880;52.452;8.656;2023-03-14T06:18:22;13.15;;;11.57;;
1765;SDS011;880;52.452;8.656;2023-03-14T06:20:52;19.00;;;11.15;;
1765;SDS011;880;52.452;8.656;2023-03-14T06:23:24;11.23;;;10.63;;
1765;SDS011;880;52.452;8.656;2023-03-14T06:25:53;10.65;;;9.88;;
1765;SDS011;880;52.452;8.656;2023-03-14T06:28:22;12.55;;;11.57;;
1765;SDS011;880;52.452;8.656;2023-03-14T06:30:52;10.65;;;9.32;;
1765;SDS011;880;52.452;8.656;2023-03-14T06:33:19;11.38;;;10.20;;
1765;SDS011;880;52.452;8.656;2023-03-14T06:35:48;11.57;;;10.55;;
1765;SDS011;880;52.452;8.656;2023-03-14T06:38:15;13.23;;;9.90;;
1765;SDS011;880;52.452;8.656;2023-03-14T06:40:42;10.52;;;9.73;;
1765;SDS011;880;52.452;8.656;2023-03-14T06:43:12;10.65;;;9.85;;
1765;SDS011;880;52.452;8.656;2023-03-14T06:45:41;10.45;;;9.45;;
1765;SDS011;880;52.452;8.656;2023-03-14T06:48:09;12.20;;;11.23;;
1765;SDS011;880;52.452;8.656;2023-03-14T06:50:42;10.07;;;9.43;;
1765;SDS011;880;52.452;8.656;2023-03-14T06:53:09;10.52;;;9.82;;
1765;SDS011;880;52.452;8.656;2023-03-14T06:55:39;9.77;;;9.05;;
1765;SDS011;880;52.452;8.656;2023-03-14T06:58:07;9.18;;;8.75;;
1765;SDS011;880;52.452;8.656;2023-03-14T07:00:40;10.40;;;9.60;;
1765;SDS011;880;52.452;8.656;2023-03-14T07:03:08;8.95;;;8.15;;
1765;SDS011;880;52.452;8.656;2023-03-14T07:05:39;10.50;;;9.95;;
1765;SDS011;880;52.452;8.656;2023-03-14T07:08:07;9.88;;;9.27;;
1765;SDS011;880;52.452;8.656;2023-03-14T07:10:35;10.02;;;9.13;;
1765;SDS011;880;52.452;8.656;2023-03-14T07:13:04;9.00;;;8.35;;
1765;SDS011;880;52.452;8.656;2023-03-14T07:15:35;8.85;;;8.45;;
1765;SDS011;880;52.452;8.656;2023-03-14T07:18:06;8.77;;;8.27;;
1765;SDS011;880;52.452;8.656;2023-03-14T07:20:33;9.02;;;8.55;;
1765;SDS011;880;52.452;8.656;2023-03-14T07:23:01;9.75;;;8.95;;
1765;SDS011;880;52.452;8.656;2023-03-14T07:25:37;8.05;;;7.57;;
1765;SDS011;880;52.452;8.656;2023-03-14T07:28:04;9.60;;;8.95;;
1765;SDS011;880;52.452;8.656;2023-03-14T07:30:32;9.60;;;8.20;;
1765;SDS011;880;52.452;8.656;2023-03-14T07:33:01;9.27;;;8.88;;
1765;SDS011;880;52.452;8.656;2023-03-14T07:35:29;8.50;;;8.10;;
1765;SDS011;880;52.452;8.656;2023-03-14T07:37:56;8.48;;;7.97;;
1765;SDS011;880;52.452;8.656;2023-03-14T07:40:30;9.63;;;8.88;;
1765;SDS011;880;52.452;8.656;2023-03-14T07:42:57;8.50;;;8.00;;
1765;SDS011;880;52.452;8.656;2023-03-14T07:45:27;8.60;;;7.95;;
1765;SDS011;880;52.452;8.656;2023-03-14T07:47:54;9.20;;;8.63;;
1765;SDS011;880;52.452;8.656;2023-03-14T07:50:24;9.10;;;8.60;;
1765;SDS011;880;52.452;8.656;2023-03-14T07:52:52;9.02;;;8.40;;
1765;SDS011;880;52.452;8.656;2023-03-14T07:55:20;8.63;;;8.15;;
1765;SDS011;880;52.452;8.656;2023-03-14T07:57:47;8.57;;;8.25;;
1765;SDS011;880;52.452;8.656;2023-03-14T08:00:14;9.25;;;8.43;;
1765;SDS011;880;52.452;8.656;2023-03-14T08:02:44;8.13;;;7.82;;
1765;SDS011;880;52.452;8.656;2023-03-14T08:05:11;9.00;;;8.45;;
1765;SDS011;880;52.452;8.656;2023-03-14T08:07:38;10.45;;;9.95;;
1765;SDS011;880;52.452;8.656;2023-03-14T08:10:05;9.27;;;8.80;;
1765;SDS011;880;52.452;8.656;2023-03-14T08:12:33;9.35;;;8.60;;
1765;SDS011;880;52.452;8.656;2023-03-14T08:15:00;8.43;;;8.00;;
1765;SDS011;880;52.452;8.656;2023-03-14T08:17:28;9.38;;;8.88;;
1765;SDS011;880;52.452;8.656;2023-03-14T08:19:55;9.95;;;9.13;;
1765;SDS011;880;52.452;8.656;2023-03-14T08:22:22;9.27;;;8.63;;
1765;SDS011;880;52.452;8.656;2023-03-14T08:24:49;8.35;;;8.05;;
1765;SDS011;880;52.452;8.656;2023-03-14T08:27:16;9.23;;;8.55;;
1765;SDS011;880;52.452;8.656;2023-03-14T08:29:43;8.52;;;8.13;;
1765;SDS011;880;52.452;8.656;2023-03-14T08:32:10;9.82;;;9.35;;
1765;SDS011;880;52.452;8.656;2023-03-14T08:34:37;8.68;;;8.38;;
1765;SDS011;880;52.452;8.656;2023-03-14T08:37:04;8.82;;;8.32;;
1765;SDS011;880;52.452;8.656;2023-03-14T08:39:51;8.75;;;8.35;;
1765;SDS011;880;52.452;8.656;2023-03-14T08:42:18;8.65;;;8.15;;
1765;SDS011;880;52.452;8.656;2023-03-14T08:44:45;9.57;;;8.98;;
1765;SDS011;880;52.452;8.656;2023-03-14T08:47:12;8.88;;;8.38;;
1765;SDS011;880;52.452;8.656;2023-03-14T08:49:40;8.65;;;8.23;;
1765;SDS011;880;52.452;8.656;2023-03-14T08:52:07;8.30;;;8.00;;
1765;SDS011;880;52.452;8.656;2023-03-14T08:54:34;8.38;;;8.07;;
1765;SDS011;880;52.452;8.656;2023-03-14T08:57:01;7.97;;;7.55;;
1765;SDS011;880;52.452;8.656;2023-03-14T08:59:28;8.70;;;8.30;;
1765;SDS011;880;52.452;8.656;2023-03-14T09:01:54;9.07;;;8.68;;
1765;SDS011;880;52.452;8.656;2023-03-14T09:04:21;8.73;;;8.25;;
1765;SDS011;880;52.452;8.656;2023-03-14T09:06:52;9.10;;;8.70;;
1765;SDS011;880;52.452;8.656;2023-03-14T09:09:19;11.65;;;10.95;;
1765;SDS011;880;52.452;8.656;2023-03-14T09:11:45;10.13;;;9.65;;
1765;SDS011;880;52.452;8.656;2023-03-14T09:14:12;12.35;;;11.52;;
1765;SDS011;880;52.452;8.656;2023-03-14T09:16:40;11.10;;;10.50;;
1765;SDS011;880;52.452;8.656;2023-03-14T09:19:07;11.55;;;10.75;;
1765;SDS011;880;52.452;8.656;2023-03-14T09:21:34;14.38;;;13.20;;
1765;SDS011;880;52.452;8.656;2023-03-14T09:24:00;12.18;;;11.27;;
1765;SDS011;880;52.452;8.656;2023-03-14T09:26:27;11.27;;;10.57;;
1765;SDS011;880;52.452;8.656;2023-03-14T09:28:54;9.70;;;9.20;;
1765;SDS011;880;52.452;8.656;2023-03-14T09:31:23;11.90;;;11.05;;
1765;SDS011;880;52.452;8.656;2023-03-14T09:33:51;10.10;;;9.60;;
1765;SDS011;880;52.452;8.656;2023-03-14T09:36:17;10.18;;;9.60;;
1765;SDS011;880;52.452;8.656;2023-03-14T09:38:45;9.18;;;8.77;;
1765;SDS011;880;52.452;8.656;2023-03-14T09:41:14;11.75;;;11.05;;
1765;SDS011;880;52.452;8.656;2023-03-14T09:43:44;12.50;;;11.63;;
1765;SDS011;880;52.452;8.656;2023-03-14T09:46:13;13.32;;;12.43;;
1765;SDS011;880;52.452;8.656;2023-03-14T09:48:41;12.20;;;11.35;;
1765;SDS011;880;52.452;8.656;2023-03-14T09:51:16;12.40;;;11.63;;
1765;SDS011;880;52.452;8.656;2023-03-14T09:53:47;14.82;;;13.63;;
1765;SDS011;880;52.452;8.656;2023-03-14T09:56:17;17.17;;;15.57;;
1765;SDS011;880;52.452;8.656;2023-03-14T09:58:53;13.68;;;12.63;;
1765;SDS011;880;52.452;8.656;2023-03-14T10:01:25;15.02;;;13.77;;
1765;SDS011;880;52.452;8.656;2023-03-14T10:04:10;13.85;;;12.75;;
1765;SDS011;880;52.452;8.656;2023-03-14T10:06:42;12.32;;;11.10;;
1765;SDS011;880;52.452;8.656;2023-03-14T10:09:22;10.98;;;10.38;;
1765;SDS011;880;52.452;8.656;2023-03-14T10:11:53;9.60;;;9.10;;
1765;SDS011;880;52.452;8.656;2023-03-14T10:14:30;8.95;;;8.55;;
1765;SDS011;880;52.452;8.656;2023-03-14T10:17:10;9.30;;;8.73;;
1765;SDS011;880;52.452;8.656;2023-03-14T10:19:52;8.60;;;8.10;;
1765;SDS011;880;52.452;8.656;2023-03-14T10:22:31;7.68;;;7.32;;
1765;SDS011;880;52.452;8.656;2023-03-14T10:25:00;7.85;;;7.45;;
1765;SDS011;880;52.452;8.656;2023-03-14T10:27:46;8.27;;;7.85;;
1765;SDS011;880;52.452;8.656;2023-03-14T10:30:26;8.82;;;8.43;;
1765;SDS011;880;52.452;8.656;2023-03-14T10:33:07;8.10;;;7.70;;
1765;SDS011;880;52.452;8.656;2023-03-14T10:35:56;7.70;;;7.40;;
1765;SDS011;880;52.452;8.656;2023-03-14T10:38:44;9.40;;;8.98;;
1765;SDS011;880;52.452;8.656;2023-03-14T10:41:19;8.60;;;8.20;;
1765;SDS011;880;52.452;8.656;2023-03-14T10:43:53;8.82;;;8.52;;
1765;SDS011;880;52.452;8.656;2023-03-14T10:46:25;7.47;;;7.18;;
1765;SDS011;880;52.452;8.656;2023-03-14T10:49:35;7.82;;;7.53;;
1765;SDS011;880;52.452;8.656;2023-03-14T10:52:19;8.98;;;8.57;;
1765;SDS011;880;52.452;8.656;2023-03-14T10:55:15;9.73;;;9.32;;
1765;SDS011;880;52.452;8.656;2023-03-14T10:57:43;8.73;;;8.32;;
1765;SDS011;880;52.452;8.656;2023-03-14T11:00:14;8.05;;;7.65;;
1765;SDS011;880;52.452;8.656;2023-03-14T11:05:53;7.28;;;6.97;;
1765;SDS011;880;52.452;8.656;2023-03-14T11:08:31;7.63;;;7.32;;
1765;SDS011;880;52.452;8.656;2023-03-14T11:11:23;6.85;;;6.65;;
1765;SDS011;880;52.452;8.656;2023-03-14T11:14:00;7.75;;;7.45;;
1765;SDS011;880;52.452;8.656;2023-03-14T11:22:54;7.55;;;7.25;;
1765;SDS011;880;52.452;8.656;2023-03-14T11:25:43;7.68;;;7.38;;
1765;SDS011;880;52.452;8.656;2023-03-14T11:28:38;9.00;;;8.60;;
1765;SDS011;880;52.452;8.656;2023-03-14T11:34:22;8.57;;;8.07;;
1765;SDS011;880;52.452;8.656;2023-03-14T11:37:00;7.75;;;7.45;;
1765;SDS011;880;52.452;8.656;2023-03-14T11:39:41;7.72;;;7.43;;
1765;SDS011;880;52.452;8.656;2023-03-14T11:42:15;8.90;;;8.50;;
1765;SDS011;880;52.452;8.656;2023-03-14T11:44:44;8.30;;;7.70;;
1765;SDS011;880;52.452;8.656;2023-03-14T11:47:19;11.48;;;10.52;;
1765;SDS011;880;52.452;8.656;2023-03-14T11:50:21;10.15;;;9.23;;
1765;SDS011;880;52.452;8.656;2023-03-14T11:52:54;9.45;;;9.00;;
1765;SDS011;880;52.452;8.656;2023-03-14T11:55:45;8.00;;;7.70;;
1765;SDS011;880;52.452;8.656;2023-03-14T11:58:19;8.90;;;7.80;;
1765;SDS011;880;52.452;8.656;2023-03-14T12:01:02;8.95;;;8.30;;
1765;SDS011;880;52.452;8.656;2023-03-14T12:03:46;8.60;;;7.88;;
1765;SDS011;880;52.452;8.656;2023-03-14T12:09:11;8.45;;;7.95;;
1765;SDS011;880;52.452;8.656;2023-03-14T12:16:55;9.50;;;8.68;;
1765;SDS011;880;52.452;8.656;2023-03-14T12:19:46;8.63;;;8.13;;
1765;SDS011;880;52.452;8.656;2023-03-14T12:22:27;8.93;;;8.43;;
1765;SDS011;880;52.452;8.656;2023-03-14T12:24:57;9.30;;;8.50;;
1765;SDS011;880;52.452;8.656;2023-03-14T12:30:30;8.82;;;8.10;;
1765;SDS011;880;52.452;8.656;2023-03-14T12:35:53;8.15;;;7.40;;
1765;SDS011;880;52.452;8.656;2023-03-14T12:38:31;15.98;;;11.48;;
1765;SDS011;880;52.452;8.656;2023-03-14T12:41:34;9.82;;;9.23;;
1765;SDS011;880;52.452;8.656;2023-03-14T12:46:58;8.27;;;7.53;;
1765;SDS011;880;52.452;8.656;2023-03-14T12:49:30;10.45;;;8.00;;
1765;SDS011;880;52.452;8.656;2023-03-14T12:51:59;8.82;;;7.88;;
1765;SDS011;880;52.452;8.656;2023-03-14T12:54:40;12.18;;;9.35;;
1765;SDS011;880;52.452;8.656;2023-03-14T13:00:00;9.50;;;7.75;;
1765;SDS011;880;52.452;8.656;2023-03-14T13:02:43;10.25;;;7.47;;
1765;SDS011;880;52.452;8.656;2023-03-14T13:05:12;9.63;;;7.38;;
1765;SDS011;880;52.452;8.656;2023-03-14T13:10:28;14.00;;;9.23;;
1765;SDS011;880;52.452;8.656;2023-03-14T13:13:17;9.40;;;8.55;;
1765;SDS011;880;52.452;8.656;2023-03-14T13:15:48;9.15;;;8.35;;
1765;SDS011;880;52.452;8.656;2023-03-14T13:21:19;10.05;;;8.93;;
1765;SDS011;880;52.452;8.656;2023-03-14T13:24:24;12.77;;;8.32;;
1765;SDS011;880;52.452;8.656;2023-03-14T13:26:53;10.00;;;8.90;;
1765;SDS011;880;52.452;8.656;2023-03-14T13:29:29;17.77;;;8.98;;
1765;SDS011;880;52.452;8.656;2023-03-14T13:31:59;14.93;;;9.20;;
1765;SDS011;880;52.452;8.656;2023-03-14T13:34:29;8.98;;;7.70;;
1765;SDS011;880;52.452;8.656;2023-03-14T13:36:59;19.23;;;9.10;;
1765;SDS011;880;52.452;8.656;2023-03-14T13:39:27;10.88;;;9.52;;
1765;SDS011;880;52.452;8.656;2023-03-14T13:41:59;14.57;;;9.85;;
1765;SDS011;880;52.452;8.656;2023-03-14T13:44:31;9.85;;;9.25;;
1765;SDS011;880;52.452;8.656;2023-03-14T13:47:01;9.18;;;8.25;;
1765;SDS011;880;52.452;8.656;2023-03-14T13:49:30;11.93;;;8.95;;
1765;SDS011;880;52.452;8.656;2023-03-14T13:52:02;10.18;;;8.32;;
1765;SDS011;880;52.452;8.656;2023-03-14T13:54:31;13.32;;;8.80;;
1765;SDS011;880;52.452;8.656;2023-03-14T13:57:02;9.82;;;8.82;;
1765;SDS011;880;52.452;8.656;2023-03-14T13:59:32;9.80;;;8.95;;
1765;SDS011;880;52.452;8.656;2023-03-14T14:02:03;11.13;;;10.25;;
1765;SDS011;880;52.452;8.656;2023-03-14T14:04:43;10.75;;;9.93;;
1765;SDS011;880;52.452;8.656;2023-03-14T14:07:12;9.13;;;8.63;;
1765;SDS011;880;52.452;8.656;2023-03-14T14:09:46;11.10;;;9.70;;
1765;SDS011;880;52.452;8.656;2023-03-14T14:17:48;12.07;;;11.10;;
1765;SDS011;880;52.452;8.656;2023-03-14T14:20:26;14.00;;;9.48;;
1765;SDS011;880;52.452;8.656;2023-03-14T14:23:02;9.45;;;8.85;;
1765;SDS011;880;52.452;8.656;2023-03-14T14:25:42;9.98;;;8.93;;
1765;SDS011;880;52.452;8.656;2023-03-14T14:33:43;9.90;;;9.20;;
1765;SDS011;880;52.452;8.656;2023-03-14T14:36:21;11.15;;;10.52;;
1765;SDS011;880;52.452;8.656;2023-03-14T14:39:11;9.25;;;8.38;;
1765;SDS011;880;52.452;8.656;2023-03-14T14:41:48;9.52;;;8.73;;
1765;SDS011;880;52.452;8.656;2023-03-14T14:44:18;11.80;;;8.82;;
1765;SDS011;880;52.452;8.656;2023-03-14T14:47:03;8.70;;;8.10;;
1765;SDS011;880;52.452;8.656;2023-03-14T14:49:31;8.85;;;8.27;;
1765;SDS011;880;52.452;8.656;2023-03-14T14:52:00;9.57;;;8.80;;
1765;SDS011;880;52.452;8.656;2023-03-14T14:57:33;9.82;;;8.68;;
1765;SDS011;880;52.452;8.656;2023-03-14T15:00:17;11.30;;;8.60;;
1765;SDS011;880;52.452;8.656;2023-03-14T15:02:52;9.43;;;8.65;;
1765;SDS011;880;52.452;8.656;2023-03-14T15:05:25;12.68;;;10.25;;
1765;SDS011;880;52.452;8.656;2023-03-14T15:07:56;10.98;;;10.05;;
1765;SDS011;880;52.452;8.656;2023-03-14T15:10:24;10.90;;;9.85;;
1765;SDS011;880;52.452;8.656;2023-03-14T15:12:51;10.45;;;9.50;;
1765;SDS011;880;52.452;8.656;2023-03-14T15:15:19;10.95;;;9.77;;
1765;SDS011;880;52.452;8.656;2023-03-14T15:17:46;12.88;;;8.68;;
1765;SDS011;880;52.452;8.656;2023-03-14T15:20:14;12.30;;;9.82;;
1765;SDS011;880;52.452;8.656;2023-03-14T15:22:42;11.88;;;8.50;;
1765;SDS011;880;52.452;8.656;2023-03-14T15:25:10;9.55;;;7.72;;
1765;SDS011;880;52.452;8.656;2023-03-14T15:27:58;9.82;;;9.05;;
1765;SDS011;880;52.452;8.656;2023-03-14T15:30:25;13.70;;;9.15;;
1765;SDS011;880;52.452;8.656;2023-03-14T15:32:52;12.32;;;9.35;;
1765;SDS011;880;52.452;8.656;2023-03-14T15:35:19;11.02;;;8.75;;
1765;SDS011;880;52.452;8.656;2023-03-14T15:37:46;20.85;;;12.75;;
1765;SDS011;880;52.452;8.656;2023-03-14T15:40:13;7.90;;;7.30;;
1765;SDS011;880;52.452;8.656;2023-03-14T15:42:42;9.32;;;8.35;;
1765;SDS011;880;52.452;8.656;2023-03-14T15:45:09;8.82;;;8.07;;
1765;SDS011;880;52.452;8.656;2023-03-14T15:47:36;9.25;;;8.55;;
1765;SDS011;880;52.452;8.656;2023-03-14T15:50:03;9.90;;;9.07;;
1765;SDS011;880;52.452;8.656;2023-03-14T15:52:31;9.88;;;8.88;;
1765;SDS011;880;52.452;8.656;2023-03-14T15:54:58;13.60;;;8.40;;
1765;SDS011;880;52.452;8.656;2023-03-14T15:57:26;10.73;;;9.60;;
1765;SDS011;880;52.452;8.656;2023-03-14T15:59:53;11.38;;;10.43;;
1765;SDS011;880;52.452;8.656;2023-03-14T16:02:20;9.57;;;8.65;;
1765;SDS011;880;52.452;8.656;2023-03-14T16:04:47;9.95;;;9.18;;
1765;SDS011;880;52.452;8.656;2023-03-14T16:07:14;10.23;;;9.43;;
1765;SDS011;880;52.452;8.656;2023-03-14T16:09:41;11.90;;;9.88;;
1765;SDS011;880;52.452;8.656;2023-03-14T16:12:08;11.38;;;10.30;;
1765;SDS011;880;52.452;8.656;2023-03-14T16:14:35;12.68;;;10.93;;
1765;SDS011;880;52.452;8.656;2023-03-14T16:17:02;10.90;;;10.02;;
1765;SDS011;880;52.452;8.656;2023-03-14T16:19:29;10.27;;;9.50;;
1765;SDS011;880;52.452;8.656;2023-03-14T16:21:57;12.63;;;10.95;;
1765;SDS011;880;52.452;8.656;2023-03-14T16:24:24;10.88;;;10.05;;
1765;SDS011;880;52.452;8.656;2023-03-14T16:26:51;9.57;;;9.00;;
1765;SDS011;880;52.452;8.656;2023-03-14T16:29:18;24.67;;;14.25;;
1765;SDS011;880;52.452;8.656;2023-03-14T16:31:44;10.50;;;9.60;;
1765;SDS011;880;52.452;8.656;2023-03-14T16:34:12;10.40;;;9.63;;
1765;SDS011;880;52.452;8.656;2023-03-14T16:36:39;12.05;;;11.23;;
1765;SDS011;880;52.452;8.656;2023-03-14T16:39:06;10.75;;;9.88;;
1765;SDS011;880;52.452;8.656;2023-03-14T16:41:33;12.13;;;11.25;;
1765;SDS011;880;52.452;8.656;2023-03-14T16:44:00;10.27;;;9.57;;
1765;SDS011;880;52.452;8.656;2023-03-14T16:46:28;10.90;;;10.10;;
1765;SDS011;880;52.452;8.656;2023-03-14T16:48:56;9.82;;;9.00;;
1765;SDS011;880;52.452;8.656;2023-03-14T16:51:23;10.32;;;9.63;;
1765;SDS011;880;52.452;8.656;2023-03-14T16:53:51;10.50;;;8.85;;
1765;SDS011;880;52.452;8.656;2023-03-14T16:56:18;21.33;;;12.98;;
1765;SDS011;880;52.452;8.656;2023-03-14T16:58:45;21.83;;;12.65;;